sensor_id;sensor_type;location;lat;lon;timestamp;temperature;humidity
69731;SHT31;56996;48.138;11.538;2024-03-23T00:55:41;12.96;50.57
69731;SHT31;56996;48.138;11.538;2024-03-23T00:58:08;12.98;50.46
69731;SHT31;56996;48.138;11.538;2024-03-23T01:00:35;13.00;50.37
69731;SHT31;56996;48.138;11.538;2024-03-23T01:03:01;13.01;50.30
69731;SHT31;56996;48.138;11.538;2024-03-23T01:05:28;13.02;50.27
69731;SHT31;56996;48.138;11.538;2024-03-23T01:07:55;13.02;50.28
69731;SHT31;56996;48.138;11.538;2024-03-23T01:10:21;13.01;50.30
69731;SHT31;56996;48.138;11.538;2024-03-23T01:12:47;13.00;50.35
69731;SHT31;56996;48.138;11.538;2024-03-23T01:15:14;13.00;50.37
69731;SHT31;56996;48.138;11.538;2024-03-23T01:17:40;12.97;50.40
69731;SHT31;56996;48.138;11.538;2024-03-23T01:20:07;12.96;50.49
69731;SHT31;56996;48.138;11.538;2024-03-23T01:22:34;12.94;50.60
69731;SHT31;56996;48.138;11.538;2024-03-23T01:25:00;12.91;50.68
69731;SHT31;56996;48.138;11.538;2024-03-23T01:27:27;12.90;50.70
69731;SHT31;56996;48.138;11.538;2024-03-23T01:29:53;12.88;50.76
69731;SHT31;56996;48.138;11.538;2024-03-23T01:32:20;12.86;50.87
69731;SHT31;56996;48.138;11.538;2024-03-23T01:34:47;12.83;50.93
69731;SHT31;56996;48.138;11.538;2024-03-23T01:37:14;12.81;50.99
69731;SHT31;56996;48.138;11.538;2024-03-23T01:39:40;12.80;51.07
69731;SHT31;56996;48.138;11.538;2024-03-23T01:42:07;12.78;51.05
69731;SHT31;56996;48.138;11.538;2024-03-23T01:44:33;12.76;51.11
69731;SHT31;56996;48.138;11.538;2024-03-23T01:47:00;12.75;51.19
69731;SHT31;56996;48.138;11.538;2024-03-23T01:49:27;12.74;51.20
69731;SHT31;56996;48.138;11.538;2024-03-23T01:51:53;12.71;51.32
69731;SHT31;56996;48.138;11.538;2024-03-23T01:54:20;12.69;51.44
69731;SHT31;56996;48.138;11.538;2024-03-23T01:56:47;12.67;51.50
69731;SHT31;56996;48.138;11.538;2024-03-23T01:59:15;12.65;51.59
69731;SHT31;56996;48.138;11.538;2024-03-23T02:01:41;12.63;51.61
69731;SHT31;56996;48.138;11.538;2024-03-23T02:04:08;12.62;51.73
69731;SHT31;56996;48.138;11.538;2024-03-23T02:06:35;12.59;51.84
69731;SHT31;56996;48.138;11.538;2024-03-23T02:09:02;12.58;51.95
69731;SHT31;56996;48.138;11.538;2024-03-23T02:11:29;12.55;52.07
69731;SHT31;56996;48.138;11.538;2024-03-23T02:13:56;12.52;52.19
69731;SHT31;56996;48.138;11.538;2024-03-23T02:16:22;12.50;52.28
69731;SHT31;56996;48.138;11.538;2024-03-23T02:18:49;12.47;52.37
69731;SHT31;56996;48.138;11.538;2024-03-23T02:21:15;12.44;52.46
69731;SHT31;56996;48.138;11.538;2024-03-23T02:23:42;12.43;52.59
69731;SHT31;56996;48.138;11.538;2024-03-23T02:26:08;12.40;52.68
69731;SHT31;56996;48.138;11.538;2024-03-23T02:28:35;12.39;52.80
69731;SHT31;56996;48.138;11.538;2024-03-23T02:31:02;12.36;52.96
69731;SHT31;56996;48.138;11.538;2024-03-23T02:33:30;12.34;53.06
69731;SHT31;56996;48.138;11.538;2024-03-23T02:35:58;12.31;53.18
69731;SHT31;56996;48.138;11.538;2024-03-23T02:38:24;12.29;53.26
69731;SHT31;56996;48.138;11.538;2024-03-23T02:40:51;12.28;53.37
69731;SHT31;56996;48.138;11.538;2024-03-23T02:43:17;12.25;53.49
69731;SHT31;56996;48.138;11.538;2024-03-23T02:45:44;12.24;53.63
69731;SHT31;56996;48.138;11.538;2024-03-23T02:48:10;12.23;53.74
69731;SHT31;56996;48.138;11.538;2024-03-23T02:50:37;12.20;53.90
69731;SHT31;56996;48.138;11.538;2024-03-23T02:53:03;12.18;53.99
69731;SHT31;56996;48.138;11.538;2024-03-23T02:55:30;12.16;54.11
69731;SHT31;56996;48.138;11.538;2024-03-23T02:57:57;12.12;54.27
69731;SHT31;56996;48.138;11.538;2024-03-23T03:00:28;12.09;54.45
69731;SHT31;56996;48.138;11.538;2024-03-23T03:02:55;12.07;54.58
69731;SHT31;56996;48.138;11.538;2024-03-23T03:05:21;12.06;54.69
69731;SHT31;56996;48.138;11.538;2024-03-23T03:07:48;12.04;54.77
69731;SHT31;56996;48.138;11.538;2024-03-23T03:10:14;12.01;54.93
69731;SHT31;56996;48.138;11.538;2024-03-23T03:12:41;11.98;55.13
69731;SHT31;56996;48.138;11.538;2024-03-23T03:15:08;11.96;55.17
69731;SHT31;56996;48.138;11.538;2024-03-23T03:17:35;11.94;55.31
69731;SHT31;56996;48.138;11.538;2024-03-23T03:20:02;11.93;55.47
69731;SHT31;56996;48.138;11.538;2024-03-23T03:22:31;11.90;55.53
69731;SHT31;56996;48.138;11.538;2024-03-23T03:24:57;11.87;55.67
69731;SHT31;56996;48.138;11.538;2024-03-23T03:27:24;11.83;55.74
69731;SHT31;56996;48.138;11.538;2024-03-23T03:29:50;11.80;55.91
69731;SHT31;56996;48.138;11.538;2024-03-23T03:32:17;11.77;55.98
69731;SHT31;56996;48.138;11.538;2024-03-23T03:34:43;11.75;56.02
69731;SHT31;56996;48.138;11.538;2024-03-23T03:37:10;11.72;56.12
69731;SHT31;56996;48.138;11.538;2024-03-23T03:39:36;11.70;56.20
69731;SHT31;56996;48.138;11.538;2024-03-23T03:42:03;11.68;56.27
69731;SHT31;56996;48.138;11.538;2024-03-23T03:44:33;11.65;56.39
69731;SHT31;56996;48.138;11.538;2024-03-23T03:46:59;11.62;56.54
69731;SHT31;56996;48.138;11.538;2024-03-23T03:49:26;11.59;56.67
69731;SHT31;56996;48.138;11.538;2024-03-23T03:51:53;11.55;56.81
69731;SHT31;56996;48.138;11.538;2024-03-23T03:54:20;11.52;56.88
69731;SHT31;56996;48.138;11.538;2024-03-23T03:56:46;11.48;57.03
69731;SHT31;56996;48.138;11.538;2024-03-23T03:59:13;11.45;57.13
69731;SHT31;56996;48.138;11.538;2024-03-23T04:01:41;11.42;57.29
69731;SHT31;56996;48.138;11.538;2024-03-23T04:04:07;11.39;57.36
69731;SHT31;56996;48.138;11.538;2024-03-23T04:06:34;11.37;57.49
69731;SHT31;56996;48.138;11.538;2024-03-23T04:09:01;11.35;57.52
69731;SHT31;56996;48.138;11.538;2024-03-23T04:11:28;11.35;57.56
69731;SHT31;56996;48.138;11.538;2024-03-23T04:13:54;11.34;57.60
69731;SHT31;56996;48.138;11.538;2024-03-23T04:16:27;11.33;57.64
69731;SHT31;56996;48.138;11.538;2024-03-23T04:18:55;11.31;57.67
69731;SHT31;56996;48.138;11.538;2024-03-23T04:21:22;11.30;57.75
69731;SHT31;56996;48.138;11.538;2024-03-23T04:23:49;11.28;57.78
69731;SHT31;56996;48.138;11.538;2024-03-23T04:26:15;11.27;57.80
69731;SHT31;56996;48.138;11.538;2024-03-23T04:28:42;11.26;57.80
69731;SHT31;56996;48.138;11.538;2024-03-23T04:31:09;11.25;57.82
69731;SHT31;56996;48.138;11.538;2024-03-23T04:33:36;11.25;57.76
69731;SHT31;56996;48.138;11.538;2024-03-23T04:36:03;11.26;57.67
69731;SHT31;56996;48.138;11.538;2024-03-23T04:38:30;11.27;57.56
69731;SHT31;56996;48.138;11.538;2024-03-23T04:40:57;11.28;57.43
69731;SHT31;56996;48.138;11.538;2024-03-23T04:43:25;11.31;57.30
69731;SHT31;56996;48.138;11.538;2024-03-23T04:45:52;11.34;57.18
69731;SHT31;56996;48.138;11.538;2024-03-23T04:48:20;11.35;57.08
69731;SHT31;56996;48.138;11.538;2024-03-23T04:50:48;11.36;57.01
69731;SHT31;56996;48.138;11.538;2024-03-23T04:53:16;11.37;56.92
69731;SHT31;56996;48.138;11.538;2024-03-23T04:55:43;11.39;56.88
69731;SHT31;56996;48.138;11.538;2024-03-23T04:58:10;11.40;56.71
69731;SHT31;56996;48.138;11.538;2024-03-23T05:00:36;11.42;56.57
69731;SHT31;56996;48.138;11.538;2024-03-23T05:03:03;11.44;56.44
69731;SHT31;56996;48.138;11.538;2024-03-23T05:05:30;11.48;56.29
69731;SHT31;56996;48.138;11.538;2024-03-23T05:07:58;11.52;56.17
69731;SHT31;56996;48.138;11.538;2024-03-23T05:10:24;11.56;56.01
69731;SHT31;56996;48.138;11.538;2024-03-23T05:12:51;11.59;55.89
69731;SHT31;56996;48.138;11.538;2024-03-23T05:15:17;11.60;55.80
69731;SHT31;56996;48.138;11.538;2024-03-23T05:17:44;11.64;55.64
69731;SHT31;56996;48.138;11.538;2024-03-23T05:20:10;11.66;55.49
69731;SHT31;56996;48.138;11.538;2024-03-23T05:22:39;11.68;55.47
69731;SHT31;56996;48.138;11.538;2024-03-23T05:25:06;11.69;55.32
69731;SHT31;56996;48.138;11.538;2024-03-23T05:27:33;11.72;55.31
69731;SHT31;56996;48.138;11.538;2024-03-23T05:30:00;11.75;55.20
69731;SHT31;56996;48.138;11.538;2024-03-23T05:32:26;11.81;55.11
69731;SHT31;56996;48.138;11.538;2024-03-23T05:34:53;11.87;54.95
69731;SHT31;56996;48.138;11.538;2024-03-23T05:37:22;11.91;54.84
69731;SHT31;56996;48.138;11.538;2024-03-23T05:39:49;11.96;54.67
69731;SHT31;56996;48.138;11.538;2024-03-23T05:42:16;12.00;54.53
69731;SHT31;56996;48.138;11.538;2024-03-23T05:44:44;12.05;54.46
69731;SHT31;56996;48.138;11.538;2024-03-23T05:47:11;12.10;54.46
69731;SHT31;56996;48.138;11.538;2024-03-23T05:49:42;12.15;54.46
69731;SHT31;56996;48.138;11.538;2024-03-23T05:52:09;12.21;54.41
69731;SHT31;56996;48.138;11.538;2024-03-23T05:54:36;12.25;54.37
69731;SHT31;56996;48.138;11.538;2024-03-23T05:57:03;12.27;54.39
69731;SHT31;56996;48.138;11.538;2024-03-23T05:59:30;12.28;54.26
69731;SHT31;56996;48.138;11.538;2024-03-23T06:01:57;12.30;54.15
69731;SHT31;56996;48.138;11.538;2024-03-23T06:04:23;12.37;53.95
69731;SHT31;56996;48.138;11.538;2024-03-23T06:06:51;12.44;53.79
69731;SHT31;56996;48.138;11.538;2024-03-23T06:09:18;12.53;53.58
69731;SHT31;56996;48.138;11.538;2024-03-23T06:11:48;12.61;53.38
69731;SHT31;56996;48.138;11.538;2024-03-23T06:14:15;12.69;53.37
69731;SHT31;56996;48.138;11.538;2024-03-23T06:16:41;12.77;53.13
69731;SHT31;56996;48.138;11.538;2024-03-23T06:19:08;12.87;53.07
69731;SHT31;56996;48.138;11.538;2024-03-23T06:21:35;12.96;52.70
69731;SHT31;56996;48.138;11.538;2024-03-23T06:24:01;13.05;52.39
69731;SHT31;56996;48.138;11.538;2024-03-23T06:26:28;13.14;52.11
69731;SHT31;56996;48.138;11.538;2024-03-23T06:28:54;13.24;51.81
69731;SHT31;56996;48.138;11.538;2024-03-23T06:31:22;13.31;51.73
69731;SHT31;56996;48.138;11.538;2024-03-23T06:33:48;13.38;51.62
69731;SHT31;56996;48.138;11.538;2024-03-23T06:36:15;13.47;51.19
69731;SHT31;56996;48.138;11.538;2024-03-23T06:38:44;13.57;50.98
69731;SHT31;56996;48.138;11.538;2024-03-23T06:41:11;13.68;50.79
69731;SHT31;56996;48.138;11.538;2024-03-23T06:43:37;13.74;50.64
69731;SHT31;56996;48.138;11.538;2024-03-23T06:46:04;13.81;50.33
69731;SHT31;56996;48.138;11.538;2024-03-23T06:48:30;13.90;50.11
69731;SHT31;56996;48.138;11.538;2024-03-23T06:50:57;13.98;49.98
69731;SHT31;56996;48.138;11.538;2024-03-23T06:53:24;14.07;49.80
69731;SHT31;56996;48.138;11.538;2024-03-23T06:55:51;14.17;49.66
69731;SHT31;56996;48.138;11.538;2024-03-23T06:58:20;14.26;49.60
69731;SHT31;56996;48.138;11.538;2024-03-23T07:00:48;14.38;49.46
69731;SHT31;56996;48.138;11.538;2024-03-23T07:03:15;14.56;49.26
69731;SHT31;56996;48.138;11.538;2024-03-23T07:05:42;14.78;49.13
69731;SHT31;56996;48.138;11.538;2024-03-23T07:08:09;14.89;49.13
69731;SHT31;56996;48.138;11.538;2024-03-23T07:10:38;14.99;49.12
69731;SHT31;56996;48.138;11.538;2024-03-23T07:13:06;15.15;49.02
69731;SHT31;56996;48.138;11.538;2024-03-23T07:15:36;15.28;48.91
69731;SHT31;56996;48.138;11.538;2024-03-23T07:18:02;15.38;48.66
69731;SHT31;56996;48.138;11.538;2024-03-23T07:20:29;15.42;48.32
69731;SHT31;56996;48.138;11.538;2024-03-23T07:22:57;15.50;48.38
69731;SHT31;56996;48.138;11.538;2024-03-23T07:25:24;15.63;48.16
69731;SHT31;56996;48.138;11.538;2024-03-23T07:27:53;15.69;47.80
69731;SHT31;56996;48.138;11.538;2024-03-23T07:30:19;15.73;47.94
69731;SHT31;56996;48.138;11.538;2024-03-23T07:32:46;15.80;47.90
69731;SHT31;56996;48.138;11.538;2024-03-23T07:35:13;15.85;47.84
69731;SHT31;56996;48.138;11.538;2024-03-23T07:37:40;15.90;47.62
69731;SHT31;56996;48.138;11.538;2024-03-23T07:40:08;15.81;47.88
69731;SHT31;56996;48.138;11.538;2024-03-23T07:42:35;15.70;48.97
69731;SHT31;56996;48.138;11.538;2024-03-23T07:45:02;15.56;50.74
69731;SHT31;56996;48.138;11.538;2024-03-23T07:47:33;15.35;52.57
69731;SHT31;56996;48.138;11.538;2024-03-23T07:49:59;15.10;54.25
69731;SHT31;56996;48.138;11.538;2024-03-23T07:52:29;14.85;55.98
69731;SHT31;56996;48.138;11.538;2024-03-23T07:54:56;14.59;57.06
69731;SHT31;56996;48.138;11.538;2024-03-23T07:57:22;14.36;57.46
69731;SHT31;56996;48.138;11.538;2024-03-23T07:59:49;14.17;58.42
69731;SHT31;56996;48.138;11.538;2024-03-23T08:02:15;13.91;59.68
69731;SHT31;56996;48.138;11.538;2024-03-23T08:04:42;13.73;60.63
69731;SHT31;56996;48.138;11.538;2024-03-23T08:07:08;13.64;61.22
69731;SHT31;56996;48.138;11.538;2024-03-23T08:09:35;13.52;62.63
69731;SHT31;56996;48.138;11.538;2024-03-23T08:12:01;13.30;63.38
69731;SHT31;56996;48.138;11.538;2024-03-23T08:14:28;13.19;64.05
69731;SHT31;56996;48.138;11.538;2024-03-23T08:16:55;13.15;64.70
69731;SHT31;56996;48.138;11.538;2024-03-23T08:19:21;13.02;65.30
69731;SHT31;56996;48.138;11.538;2024-03-23T08:21:48;12.91;65.68
69731;SHT31;56996;48.138;11.538;2024-03-23T08:24:15;12.75;67.02
69731;SHT31;56996;48.138;11.538;2024-03-23T08:26:41;12.63;67.23
69731;SHT31;56996;48.138;11.538;2024-03-23T08:29:08;12.60;67.41
69731;SHT31;56996;48.138;11.538;2024-03-23T08:31:34;12.59;67.73
69731;SHT31;56996;48.138;11.538;2024-03-23T08:34:01;12.43;69.36
69731;SHT31;56996;48.138;11.538;2024-03-23T08:36:27;12.19;69.45
69731;SHT31;56996;48.138;11.538;2024-03-23T08:38:55;11.95;69.08
69731;SHT31;56996;48.138;11.538;2024-03-23T08:41:21;11.81;69.04
69731;SHT31;56996;48.138;11.538;2024-03-23T08:43:48;11.69;68.93
69731;SHT31;56996;48.138;11.538;2024-03-23T08:46:15;11.55;68.88
69731;SHT31;56996;48.138;11.538;2024-03-23T08:48:43;11.45;69.14
69731;SHT31;56996;48.138;11.538;2024-03-23T08:51:12;11.35;69.18
69731;SHT31;56996;48.138;11.538;2024-03-23T08:53:40;11.26;69.49
69731;SHT31;56996;48.138;11.538;2024-03-23T08:56:08;11.22;69.69
69731;SHT31;56996;48.138;11.538;2024-03-23T08:58:36;11.25;69.74
69731;SHT31;56996;48.138;11.538;2024-03-23T09:01:08;11.21;69.87
69731;SHT31;56996;48.138;11.538;2024-03-23T09:03:37;11.20;70.27
69731;SHT31;56996;48.138;11.538;2024-03-23T09:06:07;11.23;70.36
69731;SHT31;56996;48.138;11.538;2024-03-23T09:08:38;11.26;70.22
69731;SHT31;56996;48.138;11.538;2024-03-23T09:11:07;11.24;70.64
69731;SHT31;56996;48.138;11.538;2024-03-23T09:13:37;11.27;70.77
69731;SHT31;56996;48.138;11.538;2024-03-23T09:16:04;11.25;70.76
69731;SHT31;56996;48.138;11.538;2024-03-23T09:18:32;11.28;70.81
69731;SHT31;56996;48.138;11.538;2024-03-23T09:21:01;11.34;70.60
69731;SHT31;56996;48.138;11.538;2024-03-23T09:23:29;11.39;70.68
69731;SHT31;56996;48.138;11.538;2024-03-23T09:25:56;11.41;70.81
69731;SHT31;56996;48.138;11.538;2024-03-23T09:28:22;11.36;70.78
69731;SHT31;56996;48.138;11.538;2024-03-23T09:30:49;11.39;70.80
69731;SHT31;56996;48.138;11.538;2024-03-23T09:33:16;11.43;70.31
69731;SHT31;56996;48.138;11.538;2024-03-23T09:35:43;11.46;70.21
69731;SHT31;56996;48.138;11.538;2024-03-23T09:38:13;11.45;70.75
69731;SHT31;56996;48.138;11.538;2024-03-23T09:40:40;11.43;70.32
69731;SHT31;56996;48.138;11.538;2024-03-23T09:43:10;11.46;68.75
69731;SHT31;56996;48.138;11.538;2024-03-23T09:45:40;11.44;67.49
69731;SHT31;56996;48.138;11.538;2024-03-23T09:48:08;11.32;66.40
69731;SHT31;56996;48.138;11.538;2024-03-23T09:50:37;11.27;66.14
69731;SHT31;56996;48.138;11.538;2024-03-23T09:53:08;11.27;65.86
69731;SHT31;56996;48.138;11.538;2024-03-23T09:55:40;11.29;66.17
69731;SHT31;56996;48.138;11.538;2024-03-23T09:58:08;11.31;66.47
69731;SHT31;56996;48.138;11.538;2024-03-23T10:00:39;11.23;65.99
69731;SHT31;56996;48.138;11.538;2024-03-23T10:03:05;11.16;66.30
69731;SHT31;56996;48.138;11.538;2024-03-23T10:05:34;10.97;65.86
69731;SHT31;56996;48.138;11.538;2024-03-23T10:08:17;10.75;66.15
69731;SHT31;56996;48.138;11.538;2024-03-23T10:10:47;10.55;66.43
69731;SHT31;56996;48.138;11.538;2024-03-23T10:13:24;10.39;66.73
69731;SHT31;56996;48.138;11.538;2024-03-23T10:15:55;10.45;66.54
69731;SHT31;56996;48.138;11.538;2024-03-23T10:18:24;10.44;67.01
69731;SHT31;56996;48.138;11.538;2024-03-23T10:20:52;10.52;67.62
69731;SHT31;56996;48.138;11.538;2024-03-23T10:23:41;10.53;67.98
69731;SHT31;56996;48.138;11.538;2024-03-23T10:26:12;10.59;68.48
69731;SHT31;56996;48.138;11.538;2024-03-23T10:28:53;10.65;68.51
69731;SHT31;56996;48.138;11.538;2024-03-23T10:31:20;10.70;68.21
69731;SHT31;56996;48.138;11.538;2024-03-23T10:33:47;10.76;68.01
69731;SHT31;56996;48.138;11.538;2024-03-23T10:36:15;10.75;68.59
69731;SHT31;56996;48.138;11.538;2024-03-23T10:38:42;10.73;68.21
69731;SHT31;56996;48.138;11.538;2024-03-23T10:41:11;10.71;68.46
69731;SHT31;56996;48.138;11.538;2024-03-23T10:43:37;10.65;68.41
69731;SHT31;56996;48.138;11.538;2024-03-23T10:46:05;10.54;68.27
69731;SHT31;56996;48.138;11.538;2024-03-23T10:48:32;10.33;66.49
69731;SHT31;56996;48.138;11.538;2024-03-23T10:50:59;10.32;66.05
69731;SHT31;56996;48.138;11.538;2024-03-23T10:53:27;10.35;65.71
69731;SHT31;56996;48.138;11.538;2024-03-23T10:55:57;10.33;65.00
69731;SHT31;56996;48.138;11.538;2024-03-23T10:58:29;10.33;65.08
69731;SHT31;56996;48.138;11.538;2024-03-23T11:01:11;10.41;64.58
69731;SHT31;56996;48.138;11.538;2024-03-23T11:03:40;10.35;64.28
69731;SHT31;56996;48.138;11.538;2024-03-23T11:06:34;10.35;64.93
69731;SHT31;56996;48.138;11.538;2024-03-23T11:14:46;10.52;64.20
69731;SHT31;56996;48.138;11.538;2024-03-23T11:17:18;10.49;64.49
69731;SHT31;56996;48.138;11.538;2024-03-23T11:19:52;10.57;64.80
69731;SHT31;56996;48.138;11.538;2024-03-23T11:22:39;10.56;65.11
69731;SHT31;56996;48.138;11.538;2024-03-23T11:27:51;10.59;65.24
69731;SHT31;56996;48.138;11.538;2024-03-23T11:30:19;10.70;65.08
69731;SHT31;56996;48.138;11.538;2024-03-23T11:32:51;10.78;64.88
69731;SHT31;56996;48.138;11.538;2024-03-23T11:35:26;10.81;64.50
69731;SHT31;56996;48.138;11.538;2024-03-23T11:40:36;10.82;64.45
69731;SHT31;56996;48.138;11.538;2024-03-23T11:43:08;10.90;63.93
69731;SHT31;56996;48.138;11.538;2024-03-23T11:45:38;11.00;63.67
69731;SHT31;56996;48.138;11.538;2024-03-23T11:48:15;11.12;63.72
69731;SHT31;56996;48.138;11.538;2024-03-23T11:50:46;11.23;63.18
69731;SHT31;56996;48.138;11.538;2024-03-23T11:53:18;11.28;63.21
69731;SHT31;56996;48.138;11.538;2024-03-23T11:55:55;11.41;62.90
69731;SHT31;56996;48.138;11.538;2024-03-23T11:58:27;11.45;62.46
69731;SHT31;56996;48.138;11.538;2024-03-23T12:00:57;11.58;62.34
69731;SHT31;56996;48.138;11.538;2024-03-23T12:03:26;11.57;61.45
69731;SHT31;56996;48.138;11.538;2024-03-23T12:05:55;11.48;61.95
69731;SHT31;56996;48.138;11.538;2024-03-23T12:08:33;11.50;61.64
69731;SHT31;56996;48.138;11.538;2024-03-23T12:11:04;11.34;61.34
69731;SHT31;56996;48.138;11.538;2024-03-23T12:13:39;11.08;61.29
69731;SHT31;56996;48.138;11.538;2024-03-23T12:18:40;10.55;59.22
69731;SHT31;56996;48.138;11.538;2024-03-23T12:21:09;10.49;60.28
69731;SHT31;56996;48.138;11.538;2024-03-23T12:23:36;10.56;60.03
69731;SHT31;56996;48.138;11.538;2024-03-23T12:26:05;10.64;58.25
69731;SHT31;56996;48.138;11.538;2024-03-23T12:28:32;10.62;57.19
69731;SHT31;56996;48.138;11.538;2024-03-23T12:30:59;10.67;55.63
69731;SHT31;56996;48.138;11.538;2024-03-23T12:33:25;10.64;54.67
69731;SHT31;56996;48.138;11.538;2024-03-23T12:35:52;10.66;55.14
69731;SHT31;56996;48.138;11.538;2024-03-23T12:38:20;10.74;53.91
69731;SHT31;56996;48.138;11.538;2024-03-23T12:40:47;10.78;54.81
69731;SHT31;56996;48.138;11.538;2024-03-23T12:43:14;10.86;54.23
69731;SHT31;56996;48.138;11.538;2024-03-23T12:45:41;10.90;54.78
69731;SHT31;56996;48.138;11.538;2024-03-23T12:48:13;11.07;55.04
69731;SHT31;56996;48.138;11.538;2024-03-23T12:50:39;11.26;54.92
69731;SHT31;56996;48.138;11.538;2024-03-23T12:53:06;11.25;53.51
69731;SHT31;56996;48.138;11.538;2024-03-23T12:55:35;11.12;53.46
69731;SHT31;56996;48.138;11.538;2024-03-23T12:58:02;11.21;54.09
69731;SHT31;56996;48.138;11.538;2024-03-23T13:00:29;11.38;54.43
69731;SHT31;56996;48.138;11.538;2024-03-23T13:02:55;11.50;54.12
69731;SHT31;56996;48.138;11.538;2024-03-23T13:05:22;11.66;54.38
69731;SHT31;56996;48.138;11.538;2024-03-23T13:07:49;11.81;54.12
69731;SHT31;56996;48.138;11.538;2024-03-23T13:10:15;11.88;53.77
69731;SHT31;56996;48.138;11.538;2024-03-23T13:12:42;12.01;53.00
69731;SHT31;56996;48.138;11.538;2024-03-23T13:15:09;12.12;52.95
69731;SHT31;56996;48.138;11.538;2024-03-23T13:17:35;12.18;52.30
69731;SHT31;56996;48.138;11.538;2024-03-23T13:20:02;12.13;51.34
69731;SHT31;56996;48.138;11.538;2024-03-23T13:22:30;12.14;51.41
69731;SHT31;56996;48.138;11.538;2024-03-23T13:24:56;12.14;50.36
69731;SHT31;56996;48.138;11.538;2024-03-23T13:27:23;12.06;49.61
69731;SHT31;56996;48.138;11.538;2024-03-23T13:29:50;11.98;50.11
69731;SHT31;56996;48.138;11.538;2024-03-23T13:32:16;11.97;50.07
69731;SHT31;56996;48.138;11.538;2024-03-23T13:34:44;11.90;50.04
69731;SHT31;56996;48.138;11.538;2024-03-23T13:37:10;11.97;49.93
69731;SHT31;56996;48.138;11.538;2024-03-23T13:39:37;12.01;49.43
69731;SHT31;56996;48.138;11.538;2024-03-23T13:42:03;11.97;49.34
69731;SHT31;56996;48.138;11.538;2024-03-23T13:44:30;11.84;49.57
69731;SHT31;56996;48.138;11.538;2024-03-23T13:46:57;11.84;49.12
69731;SHT31;56996;48.138;11.538;2024-03-23T13:49:25;11.78;49.71
69731;SHT31;56996;48.138;11.538;2024-03-23T13:51:53;11.62;49.99
69731;SHT31;56996;48.138;11.538;2024-03-23T13:54:21;11.40;51.16
69731;SHT31;56996;48.138;11.538;2024-03-23T13:56:48;11.02;51.84
69731;SHT31;56996;48.138;11.538;2024-03-23T13:59:16;10.51;54.26
69731;SHT31;56996;48.138;11.538;2024-03-23T14:01:43;10.08;56.88
69731;SHT31;56996;48.138;11.538;2024-03-23T14:04:12;9.63;58.67
69731;SHT31;56996;48.138;11.538;2024-03-23T14:06:39;9.34;59.75
69731;SHT31;56996;48.138;11.538;2024-03-23T14:09:07;9.35;60.31
69731;SHT31;56996;48.138;11.538;2024-03-23T14:11:37;9.40;60.44
69731;SHT31;56996;48.138;11.538;2024-03-23T14:14:04;9.45;61.34
69731;SHT31;56996;48.138;11.538;2024-03-23T14:16:31;9.51;61.37
69731;SHT31;56996;48.138;11.538;2024-03-23T14:18:57;9.46;61.61
69731;SHT31;56996;48.138;11.538;2024-03-23T14:21:24;9.47;61.51
69731;SHT31;56996;48.138;11.538;2024-03-23T14:23:51;9.55;61.51
69731;SHT31;56996;48.138;11.538;2024-03-23T14:26:17;9.61;61.62
69731;SHT31;56996;48.138;11.538;2024-03-23T14:28:44;9.71;61.78
69731;SHT31;56996;48.138;11.538;2024-03-23T14:31:10;9.79;61.44
69731;SHT31;56996;48.138;11.538;2024-03-23T14:33:37;9.73;59.91
69731;SHT31;56996;48.138;11.538;2024-03-23T14:36:07;9.60;60.04
69731;SHT31;56996;48.138;11.538;2024-03-23T14:38:34;9.52;59.76
69731;SHT31;56996;48.138;11.538;2024-03-23T14:41:01;9.51;59.04
69731;SHT31;56996;48.138;11.538;2024-03-23T14:43:29;9.47;56.77
69731;SHT31;56996;48.138;11.538;2024-03-23T14:46:15;9.37;55.57
69731;SHT31;56996;48.138;11.538;2024-03-23T14:48:43;9.41;55.95
69731;SHT31;56996;48.138;11.538;2024-03-23T14:51:10;9.41;54.17
69731;SHT31;56996;48.138;11.538;2024-03-23T14:53:41;9.39;53.79
69731;SHT31;56996;48.138;11.538;2024-03-23T14:56:11;9.33;52.88
69731;SHT31;56996;48.138;11.538;2024-03-23T14:58:41;9.22;53.12
69731;SHT31;56996;48.138;11.538;2024-03-23T15:01:08;9.20;54.05
69731;SHT31;56996;48.138;11.538;2024-03-23T15:03:36;9.22;53.99
69731;SHT31;56996;48.138;11.538;2024-03-23T15:06:05;9.24;54.57
69731;SHT31;56996;48.138;11.538;2024-03-23T15:08:32;9.11;55.56
69731;SHT31;56996;48.138;11.538;2024-03-23T15:10:59;8.92;57.07
69731;SHT31;56996;48.138;11.538;2024-03-23T15:13:34;8.83;58.38
69731;SHT31;56996;48.138;11.538;2024-03-23T15:16:02;8.81;58.87
69731;SHT31;56996;48.138;11.538;2024-03-23T15:18:30;8.72;59.47
69731;SHT31;56996;48.138;11.538;2024-03-23T15:20:58;8.65;59.94
69731;SHT31;56996;48.138;11.538;2024-03-23T15:23:29;8.63;60.40
69731;SHT31;56996;48.138;11.538;2024-03-23T15:28:27;8.62;60.89
69731;SHT31;56996;48.138;11.538;2024-03-23T15:31:05;8.69;61.24
69731;SHT31;56996;48.138;11.538;2024-03-23T15:33:31;8.82;61.27
69731;SHT31;56996;48.138;11.538;2024-03-23T15:35:59;8.88;61.28
69731;SHT31;56996;48.138;11.538;2024-03-23T15:38:30;8.98;61.35
69731;SHT31;56996;48.138;11.538;2024-03-23T15:40:59;9.04;61.28
69731;SHT31;56996;48.138;11.538;2024-03-23T15:43:26;9.07;61.74
69731;SHT31;56996;48.138;11.538;2024-03-23T15:45:56;9.07;61.84
69731;SHT31;56996;48.138;11.538;2024-03-23T15:48:27;9.07;61.86
69731;SHT31;56996;48.138;11.538;2024-03-23T15:50:55;9.00;62.03
69731;SHT31;56996;48.138;11.538;2024-03-23T15:53:24;8.98;62.21
69731;SHT31;56996;48.138;11.538;2024-03-23T15:55:55;8.99;62.60
69731;SHT31;56996;48.138;11.538;2024-03-23T15:58:26;9.07;63.10
69731;SHT31;56996;48.138;11.538;2024-03-23T16:00:57;9.14;62.95
69731;SHT31;56996;48.138;11.538;2024-03-23T16:03:24;9.19;63.16
69731;SHT31;56996;48.138;11.538;2024-03-23T16:05:53;9.16;62.90
69731;SHT31;56996;48.138;11.538;2024-03-23T16:08:21;9.13;62.85
69731;SHT31;56996;48.138;11.538;2024-03-23T16:10:48;9.14;63.31
69731;SHT31;56996;48.138;11.538;2024-03-23T16:13:16;9.16;63.01
69731;SHT31;56996;48.138;11.538;2024-03-23T16:15:44;9.15;63.01
69731;SHT31;56996;48.138;11.538;2024-03-23T16:18:12;9.05;62.60
69731;SHT31;56996;48.138;11.538;2024-03-23T16:20:38;9.03;62.87
69731;SHT31;56996;48.138;11.538;2024-03-23T16:23:05;8.99;62.53
69731;SHT31;56996;48.138;11.538;2024-03-23T16:25:31;9.00;62.70
69731;SHT31;56996;48.138;11.538;2024-03-23T16:27:58;8.98;62.37
69731;SHT31;56996;48.138;11.538;2024-03-23T16:30:24;8.98;62.58
69731;SHT31;56996;48.138;11.538;2024-03-23T16:32:51;9.00;62.29